Time;durP1;ratioP1;P1;durP2;ratioP2;P2;SDS_P1;SDS_P2;PMS_P1;PMS_P2;Temp;Humidity;BMP_temperature;BMP_pressure;BME280_temperature;BME280_humidity;BME280_pressure;Samples;Min_cycle;Max_cycle;Signal;HPM_P1;HPM_P2
2022/01/19 00:00:51;;;;;;;;;28.25;27.50;;;;;7.29;67.61;102430.78;5119654;27;45380;-79
2022/01/19 00:03:16;;;;;;;;;34.25;27.00;;;;;7.35;68.02;102432.75;5107379;27;45409;-76
2022/01/19 00:05:42;;;;;;;;;36.25;28.25;;;;;7.37;67.77;102450.38;5110862;27;45469;-78
2022/01/19 00:08:08;;;;;;;;;27.75;25.75;;;;;7.34;67.97;102438.84;5117928;27;45407;-79
2022/01/19 00:10:34;;;;;;;;;35.00;33.25;;;;;7.44;67.58;102456.81;5119515;27;45355;-76
2022/01/19 00:13:00;;;;;;;;;34.25;30.50;;;;;7.36;68.12;102430.25;5117441;27;45453;-77
2022/01/19 00:15:27;;;;;;;;;27.75;25.25;;;;;7.34;67.76;102433.59;5099423;27;45420;-78
2022/01/19 00:17:56;;;;;;;;;29.00;26.50;;;;;7.25;68.02;102407.84;5103684;27;46883;-76
2022/01/19 00:20:22;;;;;;;;;32.25;28.50;;;;;7.26;67.95;102399.19;5106622;27;45245;-78
2022/01/19 00:22:48;;;;;;;;;28.00;26.75;;;;;7.29;67.53;102391.44;5107558;27;45357;-77
2022/01/19 00:25:14;;;;;;;;;28.00;28.00;;;;;7.42;67.73;102409.53;5126961;27;45352;-76
2022/01/19 00:27:39;;;;;;;;;36.00;28.25;;;;;7.08;67.25;102338.03;5123306;27;46674;-78
2022/01/19 00:30:06;;;;;;;;;31.25;28.75;;;;;7.03;67.56;102329.03;5109928;27;45205;-80
2022/01/19 00:32:32;;;;;;;;;30.75;26.25;;;;;7.32;67.60;102370.59;5108131;27;45350;-79
2022/01/19 00:34:57;;;;;;;;;26.50;25.25;;;;;7.19;68.09;102335.91;5120019;27;45179;-79
2022/01/19 00:37:23;;;;;;;;;29.50;28.25;;;;;7.40;67.02;102371.88;5121888;27;45492;-78
2022/01/19 00:39:49;;;;;;;;;28.50;27.25;;;;;7.37;67.70;102373.47;5117686;27;45466;-79
2022/01/19 00:42:14;;;;;;;;;29.75;22.50;;;;;7.22;67.38;102354.38;5119512;27;45399;-79
2022/01/19 00:44:40;;;;;;;;;32.75;28.25;;;;;7.16;67.10;102365.47;5112090;27;45253;-78
2022/01/19 00:47:06;;;;;;;;;31.50;30.00;;;;;7.24;67.76;102392.03;5099103;27;45367;-77
2022/01/19 00:49:31;;;;;;;;;26.50;22.25;;;;;7.20;67.63;102372.66;5099511;27;45376;-76
2022/01/19 00:51:57;;;;;;;;;34.00;23.00;;;;;7.23;67.58;102375.41;5098687;27;45445;-78
2022/01/19 00:54:22;;;;;;;;;32.00;28.75;;;;;7.13;67.07;102355.75;5099968;27;45283;-79
2022/01/19 00:56:48;;;;;;;;;25.50;25.00;;;;;7.33;67.02;102403.88;5118934;27;46367;-81
2022/01/19 00:59:13;;;;;;;;;36.25;28.25;;;;;7.34;67.64;102412.63;5117741;27;45480;-80
2022/01/19 01:01:39;;;;;;;;;25.50;23.75;;;;;7.14;67.02;102356.63;5102172;27;45451;-81
2022/01/19 01:04:04;;;;;;;;;30.50;29.25;;;;;7.12;67.33;102353.06;5100849;27;45434;-79
2022/01/19 01:06:30;;;;;;;;;32.00;25.50;;;;;7.24;67.95;102369.34;5112553;27;46567;-80
2022/01/19 01:08:55;;;;;;;;;34.50;28.25;;;;;7.28;67.37;102368.69;5118960;27;45205;-78
2022/01/19 01:11:29;;;;;;;;;25.50;19.75;;;;;7.02;67.43;102314.16;5105395;27;45325;-78
2022/01/19 01:16:38;;;;;;;;;22.00;16.25;;;;;7.33;67.08;102358.41;5110091;27;46413;-79
2022/01/19 01:19:07;;;;;;;;;33.50;28.50;;;;;7.21;66.83;102329.00;5119028;27;45491;-79
2022/01/19 01:21:33;;;;;;;;;30.75;30.75;;;;;7.07;67.47;102312.63;5115397;27;46833;-79
2022/01/19 01:24:00;;;;;;;;;33.50;27.00;;;;;6.90;67.82;102279.53;5104531;27;45721;-78
2022/01/19 01:26:26;;;;;;;;;31.25;25.00;;;;;7.21;67.73;102319.41;5097583;27;46447;-75
2022/01/19 01:28:51;;;;;;;;;27.75;26.00;;;;;7.21;67.49;102332.53;5097911;27;45378;-78
2022/01/19 01:31:17;;;;;;;;;28.50;28.25;;;;;7.29;68.05;102354.75;5100310;27;45329;-79
2022/01/19 01:33:43;;;;;;;;;26.50;23.25;;;;;7.30;67.32;102356.53;5118732;27;45572;-78
2022/01/19 01:36:09;;;;;;;;;22.25;21.00;;;;;7.10;67.58;102339.00;5113875;27;45619;-79
2022/01/19 01:38:37;;;;;;;;;28.00;26.25;;;;;7.25;67.80;102365.91;5097889;27;45436;-79
2022/01/19 01:41:03;;;;;;;;;26.50;25.00;;;;;6.95;67.41;102320.81;5097960;27;45466;-79
2022/01/19 01:43:28;;;;;;;;;30.75;25.50;;;;;6.84;67.74;102285.38;5097974;27;45210;-79
2022/01/19 01:46:01;;;;;;;;;25.50;24.50;;;;;6.97;67.56;102313.91;5097967;27;45796;-78
2022/01/19 01:48:26;;;;;;;;;24.00;24.00;;;;;7.22;67.94;102341.28;5098521;27;45290;-77
2022/01/19 01:53:37;;;;;;;;;23.75;22.50;;;;;7.10;67.80;102316.31;5097916;27;45180;-79
2022/01/19 01:56:04;;;;;;;;;27.75;23.75;;;;;7.30;67.32;102353.91;5098691;27;45752;-79
2022/01/19 01:58:33;;;;;;;;;33.75;28.00;;;;;7.31;66.82;102339.97;5098798;27;45392;-80
2022/01/19 02:00:59;;;;;;;;;26.00;22.50;;;;;7.28;67.19;102325.84;5097964;27;45330;-79
2022/01/19 02:03:25;;;;;;;;;26.75;24.00;;;;;7.16;66.74;102305.19;5113852;27;45315;-79
2022/01/19 02:06:22;;;;;;;;;32.50;24.75;;;;;7.10;67.07;102281.34;5119263;27;46066;-79
2022/01/19 02:23:44;;;;;;;;;19.50;19.50;;;;;7.20;65.13;102277.41;5034363;28;45316;-79
2022/01/19 02:26:14;;;;;;;;;30.00;24.75;;;;;7.06;65.53;102248.84;5036411;28;45369;-80
2022/01/19 02:42:31;;;;;;;;;27.00;22.75;;;;;6.83;64.72;102182.31;4978021;28;45293;-79
2022/01/19 02:49:50;;;;;;;;;28.25;28.25;;;;;7.15;65.25;102227.41;4997157;28;45819;-77
2022/01/19 02:52:19;;;;;;;;;28.25;25.00;;;;;7.15;65.18;102230.91;4997008;28;45338;-80
2022/01/19 02:54:45;;;;;;;;;28.00;25.25;;;;;7.11;65.88;102229.00;4997870;28;45624;-77
2022/01/19 02:57:13;;;;;;;;;29.25;22.25;;;;;7.10;66.12;102221.97;4997813;28;45272;-79
2022/01/19 03:10:13;;;;;;;;;28.75;25.75;;;;;7.05;65.99;102215.59;5120855;27;45230;-78
2022/01/19 03:12:39;;;;;;;;;23.75;22.75;;;;;6.86;66.18;102187.69;5121576;27;45325;-79
2022/01/19 03:15:09;;;;;;;;;28.00;26.00;;;;;6.96;64.93;102199.47;5102342;27;45282;-78
2022/01/19 03:17:34;;;;;;;;;28.75;22.25;;;;;6.79;65.54;102184.69;5121846;27;45273;-78
2022/01/19 03:20:00;;;;;;;;;25.25;24.75;;;;;6.96;66.32;102214.28;5139129;27;46171;-79
2022/01/19 03:22:33;;;;;;;;;30.25;25.25;;;;;6.75;65.64;102175.81;5133066;27;45400;-79
2022/01/19 03:24:59;;;;;;;;;27.50;24.75;;;;;6.94;65.20;102201.13;5120659;27;45334;-78
2022/01/19 03:27:24;;;;;;;;;24.75;21.50;;;;;6.76;65.72;102172.38;5120906;27;45345;-79
2022/01/19 03:29:50;;;;;;;;;29.75;27.50;;;;;6.82;65.81;102177.00;5120364;27;45282;-79
2022/01/19 03:32:15;;;;;;;;;30.25;27.50;;;;;6.96;65.61;102206.44;5120302;27;45401;-80
2022/01/19 03:34:41;;;;;;;;;33.75;29.00;;;;;6.77;65.90;102184.63;5140843;27;45806;-78
2022/01/19 03:37:08;;;;;;;;;28.50;25.25;;;;;6.86;66.26;102198.16;5140556;27;45316;-78
2022/01/19 03:39:34;;;;;;;;;28.00;28.00;;;;;6.91;65.80;102193.16;5141070;27;45397;-77
2022/01/19 03:41:59;;;;;;;;;31.00;27.75;;;;;6.63;66.31;102146.47;5141033;27;45246;-80
2022/01/19 03:44:25;;;;;;;;;30.50;27.75;;;;;6.93;66.01;102195.84;5138831;27;45510;-78
2022/01/19 03:46:58;;;;;;;;;26.25;26.25;;;;;6.81;65.10;102188.31;5120673;27;45503;-79
2022/01/19 03:49:27;;;;;;;;;30.25;30.25;;;;;6.77;66.02;102187.25;5120265;27;45332;-78
2022/01/19 03:51:58;;;;;;;;;25.75;24.50;;;;;6.67;66.26;102164.09;5129100;27;45345;-78
2022/01/19 03:54:28;;;;;;;;;26.50;25.75;;;;;6.72;66.69;102180.94;5139075;27;45221;-78
2022/01/19 03:56:54;;;;;;;;;33.25;26.50;;;;;6.51;66.93;102152.03;5141131;27;45302;-78
2022/01/19 03:59:21;;;;;;;;;29.00;26.00;;;;;6.75;66.52;102177.53;5140706;27;45372;-78
2022/01/19 04:01:47;;;;;;;;;31.25;30.25;;;;;6.64;66.48;102155.22;5140226;27;45317;-79
2022/01/19 04:07:01;;;;;;;;;26.25;26.25;;;;;6.84;66.36;102177.97;5120081;27;45183;-79
2022/01/19 04:09:27;;;;;;;;;25.75;25.00;;;;;6.88;66.28;102176.38;5119869;27;46606;-78
2022/01/19 04:11:53;;;;;;;;;33.00;27.50;;;;;6.70;65.59;102135.44;5119791;27;45393;-79
2022/01/19 04:14:21;;;;;;;;;33.50;30.00;;;;;6.84;66.69;102155.28;5125131;27;45312;-78
2022/01/19 04:16:47;;;;;;;;;30.25;27.25;;;;;6.73;66.61;102130.34;5126768;27;45331;-78
2022/01/19 04:21:44;;;;;;;;;32.50;29.25;;;;;6.76;66.34;102140.06;5126341;27;45357;-79
2022/01/19 04:24:10;;;;;;;;;33.25;29.50;;;;;6.61;66.61;102114.09;5141407;27;45711;-79
2022/01/19 04:26:35;;;;;;;;;35.50;31.50;;;;;6.89;66.27;102163.38;5144833;27;45202;-80
2022/01/19 04:29:00;;;;;;;;;31.00;29.00;;;;;6.86;66.70;102155.34;5145362;27;46446;-79
2022/01/19 04:31:26;;;;;;;;;35.50;31.50;;;;;6.81;67.02;102151.66;5143885;27;45226;-77
2022/01/19 04:33:51;;;;;;;;;36.75;30.50;;;;;6.84;66.65;102167.50;5143423;27;45659;-79
2022/01/19 05:05:25;;;;;;;;;30.50;29.50;;;;;6.84;66.87;102150.06;5122750;27;45293;-79
2022/01/19 05:15:44;;;;;;;;;33.25;30.75;;;;;6.96;67.07;102168.03;5119830;27;45276;-80
2022/01/19 05:18:09;;;;;;;;;36.75;31.25;;;;;6.73;67.24;102108.50;5119099;27;45334;-78
2022/01/19 05:20:35;;;;;;;;;32.00;30.50;;;;;6.88;66.95;102123.97;5118767;27;46562;-79
2022/01/19 05:23:01;;;;;;;;;32.50;30.50;;;;;7.07;66.45;102158.03;5118856;27;45324;-79
2022/01/19 05:25:26;;;;;;;;;35.75;32.00;;;;;6.83;66.42;102111.59;5118985;27;45300;-80
2022/01/19 05:27:52;;;;;;;;;36.00;29.25;;;;;7.05;66.95;102147.47;5138882;27;45469;-78
2022/01/19 05:30:18;;;;;;;;;36.00;30.75;;;;;7.09;67.09;102144.19;5139634;27;46160;-78
2022/01/19 05:32:47;;;;;;;;;33.25;31.00;;;;;7.18;66.93;102146.31;5139376;27;45389;-79
2022/01/19 05:35:13;;;;;;;;;34.25;29.75;;;;;7.14;67.06;102141.75;5139863;27;45529;-78
2022/01/19 05:37:39;;;;;;;;;39.25;34.25;;;;;7.10;67.32;102121.50;5123249;27;45463;-80
2022/01/19 05:40:07;;;;;;;;;36.50;29.75;;;;;7.19;66.82;102139.34;5118600;27;46358;-78
2022/01/19 05:42:32;;;;;;;;;29.50;28.50;;;;;7.22;67.42;102153.47;5108338;27;45924;-80
2022/01/19 05:44:58;;;;;;;;;33.00;30.50;;;;;7.15;67.28;102148.78;5139187;27;45458;-81
2022/01/19 05:47:23;;;;;;;;;32.50;28.50;;;;;7.20;67.31;102147.28;5135141;27;45297;-79
2022/01/19 05:49:49;;;;;;;;;30.00;29.50;;;;;7.20;68.01;102157.75;5139251;27;45454;-80
2022/01/19 05:52:14;;;;;;;;;33.00;28.25;;;;;7.21;67.38;102161.28;5139461;27;45403;-80
2022/01/19 05:54:40;;;;;;;;;31.75;28.00;;;;;7.07;67.62;102134.44;5136570;27;45998;-80
2022/01/19 05:57:06;;;;;;;;;29.75;25.50;;;;;7.08;67.52;102133.66;5119300;27;45313;-79
2022/01/19 05:59:31;;;;;;;;;30.50;28.00;;;;;7.09;67.63;102131.09;5117337;27;45362;-79
2022/01/19 06:01:57;;;;;;;;;31.00;27.00;;;;;7.19;67.97;102141.97;5134973;27;45234;-80
2022/01/19 06:04:23;;;;;;;;;29.75;27.75;;;;;7.19;67.60;102147.22;5142236;27;45222;-80
2022/01/19 06:06:50;;;;;;;;;37.00;30.50;;;;;7.02;67.43;102118.53;5141678;27;45462;-80
2022/01/19 06:09:47;;;;;;;;;35.00;30.50;;;;;6.96;67.91;102105.16;5141928;27;45708;-80
2022/01/19 06:12:14;;;;;;;;;32.25;29.75;;;;;7.13;68.01;102140.84;5142631;27;45452;-80
2022/01/19 06:14:43;;;;;;;;;36.75;29.50;;;;;7.13;67.52;102135.63;5142465;27;45300;-79
2022/01/19 06:17:13;;;;;;;;;36.25;28.25;;;;;7.18;67.64;102143.69;5141177;27;45218;-79
2022/01/19 06:19:38;;;;;;;;;37.25;32.00;;;;;7.10;67.59;102122.41;5141889;27;46678;-80
2022/01/19 06:22:04;;;;;;;;;31.00;27.75;;;;;7.03;68.16;102116.81;5140776;27;45348;-77
2022/01/19 06:24:30;;;;;;;;;31.25;29.50;;;;;6.98;68.55;102097.34;5140160;27;45519;-80
2022/01/19 06:26:56;;;;;;;;;31.00;29.25;;;;;6.95;67.36;102085.03;5123893;27;45243;-82
2022/01/19 06:29:22;;;;;;;;;38.50;35.75;;;;;7.14;68.51;102126.94;5122116;27;45473;-79
2022/01/19 06:31:48;;;;;;;;;31.75;29.25;;;;;7.04;68.29;102105.50;5102812;27;45230;-78
2022/01/19 06:34:13;;;;;;;;;35.75;32.75;;;;;7.29;68.03;102144.16;5121531;27;45257;-81
2022/01/19 06:36:39;;;;;;;;;34.25;32.25;;;;;7.31;68.50;102137.25;5117587;27;45421;-80
2022/01/19 06:39:05;;;;;;;;;33.50;33.00;;;;;7.30;68.28;102133.72;5138915;27;46377;-81
2022/01/19 06:41:30;;;;;;;;;32.75;28.50;;;;;7.31;68.58;102142.50;5142349;27;45393;-81
2022/01/19 06:43:56;;;;;;;;;45.00;36.00;;;;;7.26;68.75;102130.91;5132967;27;45450;-79
2022/01/19 06:46:21;;;;;;;;;40.75;36.25;;;;;7.13;68.25;102108.53;5140639;27;45475;-82
2022/01/19 06:48:47;;;;;;;;;35.75;31.75;;;;;7.12;68.31;102110.25;5122096;27;45510;-81
2022/01/19 06:51:12;;;;;;;;;40.00;34.75;;;;;7.31;67.60;102134.63;5122084;27;45348;-84
2022/01/19 06:53:38;;;;;;;;;39.25;36.50;;;;;6.89;67.81;102063.84;5121263;27;45283;-84
2022/01/19 06:56:03;;;;;;;;;36.75;32.00;;;;;7.05;68.87;102091.56;5126972;27;45328;-82
2022/01/19 06:58:29;;;;;;;;;37.75;33.25;;;;;7.07;68.70;102097.75;5127658;27;46040;-81
2022/01/19 07:00:55;;;;;;;;;37.50;36.50;;;;;7.29;68.71;102137.19;5140610;27;45384;-83
2022/01/19 07:03:21;;;;;;;;;38.25;36.25;;;;;7.10;68.89;102104.06;5131745;27;45236;-82
2022/01/19 07:05:47;;;;;;;;;38.25;36.00;;;;;7.20;68.98;102117.56;5141715;27;45451;-84
2022/01/19 07:08:13;;;;;;;;;42.25;34.25;;;;;7.09;69.19;102104.00;5141345;27;45262;-84
2022/01/19 07:10:38;;;;;;;;;43.25;37.50;;;;;6.96;69.30;102083.31;5141514;27;45248;-84
2022/01/19 07:13:05;;;;;;;;;43.25;39.00;;;;;7.29;68.87;102133.69;5140510;27;45316;-83
2022/01/19 07:15:31;;;;;;;;;44.00;38.50;;;;;7.24;68.41;102122.97;5140646;27;45268;-83
2022/01/19 07:17:57;;;;;;;;;57.33;42.00;;;;;7.31;69.57;102139.88;5137740;27;46306;-86
2022/01/19 07:20:23;;;;;;;;;47.50;36.75;;;;;7.31;69.06;102134.63;5122698;27;45385;-85
2022/01/19 07:22:48;;;;;;;;;48.50;38.25;;;;;7.28;69.04;102134.50;5122449;27;45499;-84
2022/01/19 07:25:15;;;;;;;;;59.67;45.33;;;;;7.11;69.93;102107.56;5110253;27;45358;-83
2022/01/19 07:27:41;;;;;;;;;55.00;40.75;;;;;7.28;69.41;102148.50;5102119;27;48090;-83
2022/01/19 07:30:12;;;;;;;;;50.00;43.50;;;;;7.28;69.83;102148.50;5138181;27;45526;-83
2022/01/19 07:32:37;;;;;;;;;51.75;44.50;;;;;7.27;69.98;102140.59;5120820;27;45275;-85
2022/01/19 07:35:05;;;;;;;;;48.50;41.50;;;;;6.71;69.84;102066.53;5120622;27;45424;-86
2022/01/19 07:37:31;;;;;;;;;39.00;33.50;;;;;6.66;70.66;102047.09;5110581;27;47015;-85
2022/01/19 07:39:57;;;;;;;;;55.25;44.00;;;;;6.82;69.65;102067.00;5128624;27;45499;-83
2022/01/19 07:42:23;;;;;;;;;46.33;40.00;;;;;7.27;70.61;102153.69;5121109;27;45326;-83
2022/01/19 07:44:49;;;;;;;;;58.00;45.00;;;;;7.20;70.71;102123.69;5140902;27;45416;-84
2022/01/19 07:47:14;;;;;;;;;51.33;43.33;;;;;7.32;70.43;102149.53;5144870;27;45943;-82
2022/01/19 07:49:39;;;;;;;;;49.50;40.00;;;;;7.22;69.75;102119.41;5141620;27;45271;-84
2022/01/19 07:52:05;;;;;;;;;41.25;37.25;;;;;7.11;70.09;102105.84;5140568;27;45341;-83
2022/01/19 07:54:31;;;;;;;;;43.25;35.75;;;;;7.20;70.18;102122.78;5140731;27;45324;-80
2022/01/19 07:56:56;;;;;;;;;55.33;45.00;;;;;7.00;69.95;102104.47;5138133;27;46178;-81
2022/01/19 07:59:25;;;;;;;;;48.75;41.00;;;;;6.64;70.36;102033.03;5141239;27;45347;-80
2022/01/19 08:01:53;;;;;;;;;48.00;40.25;;;;;7.06;69.85;102090.72;5140630;27;45388;-84
2022/01/19 08:04:18;;;;;;;;;49.50;39.00;;;;;6.76;69.59;102041.44;5140863;27;45222;-84
2022/01/19 08:06:43;;;;;;;;;48.25;39.00;;;;;7.26;70.00;102120.41;5140576;27;45528;-84
2022/01/19 08:09:09;;;;;;;;;46.25;40.00;;;;;7.19;70.62;102103.56;5140914;27;45147;-84
2022/01/19 08:11:35;;;;;;;;;52.25;40.00;;;;;7.29;70.31;102124.09;5140680;27;45272;-82
2022/01/19 08:14:01;;;;;;;;;42.25;39.75;;;;;7.34;69.87;102130.41;5121981;27;45326;-81
2022/01/19 08:16:27;;;;;;;;;47.00;40.00;;;;;7.43;69.88;102151.75;5139360;27;45949;-81
2022/01/19 08:18:52;;;;;;;;;51.00;41.75;;;;;7.43;70.16;102148.25;5122074;27;45584;-84
2022/01/19 08:21:18;;;;;;;;;45.50;37.75;;;;;7.44;70.42;102155.28;5140523;27;45407;-83
2022/01/19 08:23:43;;;;;;;;;51.00;42.25;;;;;7.20;70.30;102117.56;5140092;27;45315;-81
2022/01/19 08:26:13;;;;;;;;;47.00;40.25;;;;;7.30;70.59;102122.34;5129520;27;46108;-82
2022/01/19 08:28:38;;;;;;;;;42.75;40.00;;;;;7.37;69.90;102146.28;5117252;27;45340;-83
2022/01/19 08:31:04;;;;;;;;;38.50;36.75;;;;;7.27;69.90;102120.50;5127433;27;45529;-83
2022/01/19 08:33:29;;;;;;;;;41.25;38.00;;;;;7.32;70.33;102129.44;5139762;27;45212;-79
2022/01/19 08:35:55;;;;;;;;;38.50;36.25;;;;;7.34;70.35;102127.78;5139118;27;46146;-83
2022/01/19 08:38:20;;;;;;;;;44.00;37.50;;;;;7.57;70.06;102159.34;5142053;27;45117;-82
2022/01/19 08:40:46;;;;;;;;;32.00;30.00;;;;;7.57;69.88;102175.06;5151693;27;44803;-82
2022/01/19 08:43:11;;;;;;;;;53.75;38.50;;;;;7.38;70.31;102142.81;5150925;27;45565;-82
2022/01/19 08:45:37;;;;;;;;;41.25;36.75;;;;;7.25;69.60;102118.63;5128787;27;46410;-82
2022/01/19 08:48:03;;;;;;;;;36.50;32.50;;;;;7.59;70.49;102170.78;5142183;27;45458;-81
2022/01/19 08:50:29;;;;;;;;;49.00;38.25;;;;;7.58;69.34;102175.13;5122924;27;45526;-81
2022/01/19 08:52:55;;;;;;;;;37.50;32.50;;;;;7.64;69.09;102179.75;5133989;27;45239;-82
2022/01/19 08:55:20;;;;;;;;;40.25;35.25;;;;;7.37;70.22;102143.66;5129612;27;46334;-82
2022/01/19 08:57:46;;;;;;;;;36.50;35.25;;;;;7.56;69.70;102171.56;5122625;27;45309;-82
2022/01/19 09:00:15;;;;;;;;;46.75;41.25;;;;;7.49;69.27;102163.34;5114758;27;45249;-80
2022/01/19 09:02:40;;;;;;;;;41.75;37.00;;;;;7.33;69.64;102128.63;5140455;27;45501;-82
2022/01/19 09:05:07;;;;;;;;;37.25;35.00;;;;;7.43;69.69;102157.00;5140269;27;45450;-83
2022/01/19 09:07:32;;;;;;;;;37.25;32.75;;;;;7.62;69.44;102189.25;5120645;27;45399;-81
2022/01/19 09:09:58;;;;;;;;;45.25;35.50;;;;;7.63;69.67;102193.66;5138097;27;45363;-80
2022/01/19 09:12:24;;;;;;;;;44.25;37.00;;;;;7.34;69.63;102140.88;5139791;27;45439;-82
2022/01/19 09:14:50;;;;;;;;;50.50;36.00;;;;;7.36;69.75;102154.97;5139797;27;45354;-81
2022/01/19 09:17:16;;;;;;;;;43.75;37.25;;;;;7.51;69.22;102177.44;5128679;27;45346;-79
2022/01/19 09:19:41;;;;;;;;;38.75;36.50;;;;;7.57;68.63;102173.34;5139910;27;45253;-81
2022/01/19 09:22:10;;;;;;;;;39.75;33.50;;;;;7.38;68.92;102137.59;5140013;27;45312;-80
2022/01/19 09:24:38;;;;;;;;;38.25;35.00;;;;;7.69;68.58;102188.69;5139119;27;47366;-80
2022/01/19 09:27:05;;;;;;;;;39.25;33.00;;;;;7.47;68.70;102142.31;5139323;27;45362;-79
2022/01/19 09:29:30;;;;;;;;;44.75;39.00;;;;;7.66;68.88;102178.09;5139387;27;45320;-80
2022/01/19 09:31:57;;;;;;;;;34.75;27.50;;;;;7.76;68.58;102195.09;5139383;27;45535;-80
2022/01/19 09:34:23;;;;;;;;;45.50;38.25;;;;;7.83;69.24;102205.03;5138588;27;45295;-80
2022/01/19 09:36:49;;;;;;;;;40.50;36.50;;;;;7.48;68.89;102149.34;5138883;27;45343;-81
2022/01/19 09:39:25;;;;;;;;;38.75;32.25;;;;;7.72;68.38;102186.19;5120563;27;45341;-81
2022/01/19 09:41:52;;;;;;;;;47.00;37.00;;;;;7.48;68.77;102144.13;5120797;27;45352;-81
2022/01/19 09:44:20;;;;;;;;;34.25;29.50;;;;;7.73;68.29;102185.41;5120561;27;47250;-80
2022/01/19 09:46:47;;;;;;;;;32.00;31.25;;;;;7.79;68.45;102205.72;5139477;27;45312;-80
2022/01/19 09:49:15;;;;;;;;;42.00;35.00;;;;;7.82;68.39;102205.88;5137443;27;45284;-82
2022/01/19 09:51:42;;;;;;;;;42.50;34.00;;;;;7.75;68.90;102188.97;5139525;27;45417;-82
2022/01/19 09:54:07;;;;;;;;;41.50;34.50;;;;;7.72;68.26;102184.50;5120309;27;46321;-81
2022/01/19 09:56:33;;;;;;;;;37.50;32.75;;;;;7.55;68.25;102140.94;5138787;27;45407;-81
2022/01/19 09:58:58;;;;;;;;;36.50;33.25;;;;;7.75;68.46;102181.09;5139413;27;45340;-83
2022/01/19 10:01:25;;;;;;;;;53.25;41.00;;;;;7.72;68.86;102170.47;5139489;27;45312;-82
2022/01/19 10:03:51;;;;;;;;;41.25;36.25;;;;;7.92;68.40;102201.06;5138406;27;45688;-82
2022/01/19 10:06:19;;;;;;;;;49.25;37.25;;;;;7.93;68.69;102200.22;5137719;27;45353;-83
2022/01/19 10:08:49;;;;;;;;;38.75;34.50;;;;;7.77;68.59;102165.41;5139105;27;45252;-81
2022/01/19 10:17:01;;;;;;;;;34.00;29.25;;;;;8.04;68.17;102207.66;5138686;27;45410;-82
2022/01/19 10:19:29;;;;;;;;;49.25;36.75;;;;;7.98;68.14;102206.53;5139109;27;45357;-81
2022/01/19 10:21:55;;;;;;;;;36.25;32.50;;;;;7.88;67.91;102191.25;5138999;27;45412;-81
2022/01/19 10:24:32;;;;;;;;;37.00;29.50;;;;;7.76;67.65;102179.38;5138571;27;46097;-82
2022/01/19 10:27:40;;;;;;;;;43.00;38.25;;;;;7.90;68.30;102194.84;5138559;27;45320;-80
2022/01/19 10:30:06;;;;;;;;;48.75;41.50;;;;;7.93;67.79;102184.50;5054448;28;45339;-80
2022/01/19 10:32:36;;;;;;;;;44.25;38.75;;;;;7.83;67.73;102163.94;5054783;28;45414;-81
2022/01/19 10:35:23;;;;;;;;;39.50;37.75;;;;;8.03;67.69;102193.63;5054269;28;46564;-81
2022/01/19 10:38:15;;;;;;;;;44.50;37.25;;;;;7.80;67.76;102163.81;5054665;28;45335;-81
2022/01/19 10:40:44;;;;;;;;;45.75;40.25;;;;;7.98;67.11;102176.78;5054434;28;45345;-81
2022/01/19 10:43:42;;;;;;;;;42.50;37.00;;;;;8.10;67.66;102189.53;5054853;28;45283;-81
2022/01/19 10:46:27;;;;;;;;;42.75;37.75;;;;;8.05;67.23;102181.47;5057691;28;45670;-80
2022/01/19 10:49:13;;;;;;;;;49.50;39.50;;;;;7.98;67.67;102163.66;5077771;28;45364;-79
2022/01/19 10:51:45;;;;;;;;;43.25;38.25;;;;;8.20;67.01;102189.97;5078096;28;45456;-80
2022/01/19 10:54:19;;;;;;;;;54.25;43.50;;;;;8.22;67.32;102182.16;5078477;28;45498;-80
2022/01/19 10:56:48;;;;;;;;;40.50;36.00;;;;;8.22;66.82;102182.16;5077786;28;45520;-80
2022/01/19 10:59:17;;;;;;;;;43.50;39.00;;;;;8.11;67.21;102160.72;5077742;28;45484;-80
2022/01/19 11:01:49;;;;;;;;;50.75;41.50;;;;;8.11;67.06;102162.47;5077381;28;45495;-81
2022/01/19 11:04:33;;;;;;;;;48.50;38.75;;;;;8.08;67.30;102163.19;5078238;28;45471;-80
2022/01/19 11:07:03;;;;;;;;;46.00;39.00;;;;;7.97;67.11;102147.03;5127285;27;46328;-80
2022/01/19 11:09:31;;;;;;;;;39.25;34.00;;;;;7.81;67.06;102107.88;5141634;27;45296;-80
2022/01/19 11:12:08;;;;;;;;;49.50;42.00;;;;;8.10;67.63;102150.16;5141368;27;45430;-79
2022/01/19 11:14:35;;;;;;;;;61.00;44.00;;;;;8.16;67.90;102169.66;5140472;27;45327;-81
2022/01/19 11:17:01;;;;;;;;;47.75;40.00;;;;;7.52;67.68;102059.50;5141357;27;45479;-81
2022/01/19 11:19:27;;;;;;;;;60.50;46.00;;;;;7.96;67.45;102128.59;5141317;27;45194;-80
2022/01/19 11:22:11;;;;;;;;;55.67;45.33;;;;;8.19;67.66;102163.63;5141355;27;45221;-80
2022/01/19 11:25:02;;;;;;;;;52.00;44.75;;;;;8.15;67.58;102157.38;5141396;27;45402;-81
2022/01/19 11:27:36;;;;;;;;;59.00;44.00;;;;;8.04;68.60;102156.06;5141456;27;45490;-80
2022/01/19 11:30:29;;;;;;;;;64.67;50.00;;;;;7.92;68.23;102135.47;5141116;27;45396;-80
2022/01/19 11:33:28;;;;;;;;;60.00;48.00;;;;;8.00;69.06;102149.81;5128990;27;45401;-81
2022/01/19 11:36:05;;;;;;;;;64.67;50.00;;;;;8.03;68.61;102153.38;5057854;28;45544;-82
2022/01/19 11:38:40;;;;;;;;;60.67;49.33;;;;;7.92;68.97;102135.47;5057648;28;45823;-81
2022/01/19 11:41:08;;;;;;;;;61.00;50.33;;;;;8.03;69.16;102154.28;5057801;28;45300;-82
2022/01/19 11:43:35;;;;;;;;;56.67;46.33;;;;;7.88;68.27;102123.03;5057231;28;45239;-83
2022/01/19 11:46:03;;;;;;;;;57.75;47.00;;;;;8.13;69.45;102143.31;5057433;28;45466;-82
2022/01/19 11:48:37;;;;;;;;;61.00;47.67;;;;;7.92;69.30;102106.59;5057000;28;45491;-81
2022/01/19 11:51:20;;;;;;;;;63.67;49.33;;;;;8.17;68.54;102139.94;5057376;28;45304;-81
2022/01/19 11:54:12;;;;;;;;;56.00;43.25;;;;;8.06;68.30;102120.25;5074332;28;45271;-82
2022/01/19 11:56:59;;;;;;;;;59.33;47.33;;;;;8.10;68.76;102132.69;5036592;28;45300;-84
2022/01/19 11:59:30;;;;;;;;;56.33;46.33;;;;;7.93;68.42;102104.88;5035826;28;45513;-80
2022/01/19 12:02:20;;;;;;;;;62.33;49.00;;;;;8.09;68.69;102128.25;5034364;28;45533;-81
2022/01/19 12:04:54;;;;;;;;;60.75;44.75;;;;;7.88;69.16;102081.06;5036195;28;45252;-79
2022/01/19 12:07:42;;;;;;;;;56.00;45.33;;;;;8.07;69.73;102126.41;5045194;28;45451;-81
2022/01/19 12:10:38;;;;;;;;;56.00;46.33;;;;;8.00;69.01;102107.81;5035793;28;45739;-81
2022/01/19 12:17:00;;;;;;;;;46.50;41.00;;;;;7.64;68.72;102038.13;5071717;28;45499;-82
2022/01/19 12:19:20;;;;;;;;;51.25;40.25;;;;;7.88;68.81;102074.94;5074018;28;45376;-80
2022/01/19 12:22:03;;;;;;;;;43.00;37.00;;;;;7.90;69.23;102089.88;5076424;28;46561;-82
2022/01/19 12:24:41;;;;;;;;;45.00;39.00;;;;;7.79;69.21;102074.56;5065922;28;45470;-78
2022/01/19 12:27:23;;;;;;;;;39.75;37.25;;;;;8.01;69.24;102111.34;5068296;28;45432;-82
2022/01/19 12:29:53;;;;;;;;;48.25;40.00;;;;;8.09;69.93;102103.72;5075670;28;45310;-80
2022/01/19 12:32:19;;;;;;;;;44.75;35.75;;;;;8.12;69.23;102096.00;5061232;28;45509;-84
2022/01/19 12:34:55;;;;;;;;;52.25;39.75;;;;;8.20;69.45;102097.19;5119297;27;45449;-83
2022/01/19 12:37:43;;;;;;;;;47.50;40.00;;;;;8.16;68.85;102085.66;5141703;27;45384;-86
2022/01/19 12:40:18;;;;;;;;;22.75;18.00;;;;;8.23;68.52;102092.94;5135025;27;45302;-81
2022/01/19 12:42:55;;;;;;;;;36.00;32.50;;;;;8.13;68.75;102076.78;5126696;27;45742;-84
2022/01/19 12:45:29;;;;;;;;;45.00;38.25;;;;;8.19;69.00;102079.63;5130776;27;45480;-82
2022/01/19 12:47:57;;;;;;;;;36.75;34.25;;;;;7.64;68.36;101983.97;5112677;27;45426;-84
2022/01/19 12:50:28;;;;;;;;;41.00;34.75;;;;;8.28;68.97;102088.78;5114643;27;45532;-82
2022/01/19 12:53:08;;;;;;;;;44.00;38.50;;;;;7.88;68.67;102035.56;5121303;27;46337;-81
2022/01/19 12:55:36;;;;;;;;;37.00;32.75;;;;;8.06;69.16;102048.50;5112374;27;45468;-82
2022/01/19 12:58:10;;;;;;;;;38.25;34.00;;;;;7.82;68.56;102006.50;5126899;27;45357;-81
2022/01/19 13:00:36;;;;;;;;;32.75;29.00;;;;;7.90;68.13;102021.66;5138310;27;45423;-82
2022/01/19 13:03:23;;;;;;;;;34.00;31.50;;;;;7.67;69.15;101967.44;5127041;27;45492;-83
2022/01/19 13:05:55;;;;;;;;;34.25;32.75;;;;;7.94;68.84;102013.09;5134582;27;45468;-82